Airfield :
LOGIN :

Register | Disclaimer

   EN    FR    IT 

 










Legend :    VFR   Marginal VFR   IFR   Intensive IFR   Very Intensive IFR
Visi :
Ceiling :
>= 8 km
>= 3000ft
5 to 8 km
1000 to 3000 ft
1500m to 5 km
500 to 1000 ft
800 to 1500m
200 to 500 ft
< 800m
< 200 ft
Symbols :   Thunderstorms  Fog  Heavy snow  Heavy precipitations  Wind > 20 kt
SIGMETs :     Misc.  Thunderstorms  Icing  Turbulence  Mountain Waves  Volcanic Ashes







- Airport Elevation : 204 ft
- IATA code : AGF
- Download approach charts


LFBA - Agen

CURRENT METAR :
  • 231400Z AUTO 35006KT 280V070 CAVOK 26/10 Q1020 NOSIG

EXPIRED METARs :
  • 231330Z AUTO 34003KT 260V070 CAVOK 26/11 Q1020 NOSIG
  • 231300Z AUTO 35004KT 300V060 CAVOK 25/10 Q1020 NOSIG
  • 231230Z AUTO 34006KT 290V020 CAVOK 25/11 Q1021 NOSIG
  • 231200Z AUTO 31004KT 250V360 CAVOK 24/11 Q1021 NOSIG
  • 231130Z AUTO 03004KT 310V110 CAVOK 24/10 Q1021 NOSIG

TAF TAF LFBA
Valid from the 23 at 12:00 until the 23 at 21:00 UTC


231100Z 2312/2321 34007KT CAVOK
No reported NOTAMs for that airfield.



MET'MAP, your aeronautical weather chart ! - Copyright ORBIFLY December 2007 - Disclaimer

ORBIFLY MET'MAP TEAM :

Programming & Development : Alexandra Zaïnal
Concept & Development : Baudouin d'Aumeries
Co-Development & Prog : Marc-Olivier Méhu
Technical & hardware support : Manuel Goepfert

Contact : metmap@orbifly.com




SOURCES & CREDITS :

   NOAA